createdAt,value
2023-04-12T00:03:51.397Z,79.03
2023-04-12T00:08:51.036Z,79.79
2023-04-12T00:13:51.011Z,80.04
2023-04-12T00:18:50.940Z,80.24
2023-04-12T00:23:50.951Z,80.04
2023-04-12T00:28:50.796Z,80.35
2023-04-12T00:33:50.827Z,80.45
2023-04-12T00:38:50.634Z,80.24
2023-04-12T00:43:53.615Z,80.24
2023-04-12T00:48:50.698Z,80.83
2023-04-12T00:53:50.526Z,79.34
2023-04-12T00:58:50.401Z,79.69
2023-04-12T01:03:59.304Z,80.10
2023-04-12T01:08:57.726Z,79.38
2023-04-12T01:13:58.359Z,78.47
2023-04-12T01:18:50.183Z,79.44
2023-04-12T01:23:50.208Z,80.00
2023-04-12T01:28:50.022Z,79.34
2023-04-12T01:33:50.024Z,79.69
2023-04-12T01:38:49.891Z,80.62
2023-04-12T01:43:52.924Z,80.06
2023-04-12T01:48:49.819Z,80.68
2023-04-12T01:53:49.688Z,80.13
2023-04-12T01:58:49.619Z,79.61
2023-04-12T02:03:50.223Z,78.89
2023-04-12T02:08:49.512Z,79.61
2023-04-12T02:13:49.440Z,80.02
2023-04-12T02:18:49.380Z,79.61
2023-04-12T02:23:49.329Z,79.71
2023-04-12T02:28:49.337Z,80.58
2023-04-12T02:33:49.242Z,80.79
2023-04-12T02:38:49.162Z,79.92
2023-04-12T02:43:52.069Z,79.82
2023-04-12T02:48:48.950Z,80.68
2023-04-12T02:53:48.954Z,80.96
2023-04-12T02:58:48.845Z,80.33
2023-04-12T03:03:48.954Z,81.41
2023-04-12T03:08:48.684Z,80.44
2023-04-12T03:13:48.704Z,80.54
2023-04-12T03:18:48.627Z,80.75
2023-04-12T03:23:48.496Z,80.37
2023-04-12T03:28:48.407Z,80.44
2023-04-12T03:33:48.460Z,80.09
2023-04-12T03:38:48.259Z,79.78
2023-04-12T03:43:51.336Z,79.82
2023-04-12T03:48:48.204Z,80.96
2023-04-12T03:53:48.103Z,79.99
2023-04-12T03:58:48.029Z,79.74
2023-04-12T04:03:48.153Z,79.54
2023-04-12T04:08:47.912Z,80.19
2023-04-12T04:13:47.875Z,80.36
2023-04-12T04:18:47.785Z,79.74
2023-04-12T04:23:47.863Z,79.81
2023-04-12T04:28:47.646Z,79.09
2023-04-12T04:33:47.722Z,78.47
2023-04-12T04:38:47.529Z,78.57
2023-04-12T04:43:50.649Z,78.22
2023-04-12T04:48:47.402Z,79.16
2023-04-12T04:53:47.333Z,78.15
2023-04-12T04:58:47.247Z,77.53
2023-04-12T05:03:47.298Z,78.02
2023-04-12T05:08:47.132Z,78.05
2023-04-12T05:13:47.097Z,77.12
2023-04-12T05:18:47.007Z,77.08
2023-04-12T05:23:46.908Z,77.46
2023-04-12T05:28:46.833Z,77.25
2023-04-12T05:33:46.847Z,77.11
2023-04-12T05:38:46.730Z,75.63
2023-04-12T05:43:49.688Z,74.46
2023-04-12T05:48:54.588Z,74.71
2023-04-12T05:53:54.007Z,71.78
2023-04-12T05:58:46.462Z,72.03
2023-04-12T06:03:46.551Z,72.44
2023-04-12T06:08:46.453Z,70.52
2023-04-12T06:13:46.248Z,67.56
2023-04-12T06:18:46.398Z,65.01
2023-04-12T06:23:46.115Z,64.23
2023-04-12T06:28:46.205Z,60.51
2023-04-12T06:33:45.959Z,60.46
2023-04-12T06:38:46.833Z,63.44
2023-04-12T06:43:48.846Z,63.18
2023-04-12T06:48:45.764Z,64.13
2023-04-12T06:53:46.030Z,61.76
2023-04-12T06:58:45.727Z,55.35
2023-04-12T07:03:45.654Z,54.11
2023-04-12T07:08:45.500Z,53.45
2023-04-12T07:13:45.522Z,52.51
2023-04-12T07:18:45.367Z,52.20
2023-04-12T07:23:45.343Z,52.61
2023-04-12T07:28:45.285Z,53.60
2023-04-12T07:33:45.266Z,53.22
2023-04-12T07:38:45.141Z,53.32
2023-04-12T07:43:49.085Z,53.78
2023-04-12T07:48:44.980Z,52.28
2023-04-12T07:53:44.939Z,51.95
2023-04-12T07:58:44.814Z,52.15
2023-04-12T08:03:44.936Z,53.34
2023-04-12T08:08:44.674Z,52.66
2023-04-12T08:13:44.648Z,55.15
2023-04-12T08:18:44.539Z,54.59
2023-04-12T08:23:44.525Z,54.64
2023-04-12T08:28:44.479Z,53.58
2023-04-12T08:33:44.402Z,54.46
2023-04-12T08:38:48.746Z,52.94
2023-04-12T08:43:47.366Z,52.97
2023-04-12T08:48:44.173Z,52.25
2023-04-12T08:53:44.788Z,52.23
2023-04-12T08:58:44.022Z,53.27
2023-04-12T09:03:44.364Z,53.27
2023-04-12T09:08:43.895Z,52.86
2023-04-12T09:13:44.070Z,54.18
2023-04-12T09:18:43.749Z,52.44
2023-04-12T09:23:43.779Z,52.03
2023-04-12T09:28:43.734Z,51.14
2023-04-12T09:33:43.583Z,50.94
2023-04-12T09:38:43.584Z,50.18
2023-04-12T09:43:46.490Z,50.11
2023-04-12T09:48:43.396Z,50.61
2023-04-12T09:53:43.422Z,49.38
2023-04-12T09:58:43.243Z,50.11
2023-04-12T10:03:43.831Z,51.22
2023-04-12T10:08:43.199Z,50.26
2023-04-12T10:13:43.281Z,49.22
2023-04-12T10:18:50.534Z,48.32
2023-04-12T10:23:50.340Z,49.98
2023-04-12T10:28:50.648Z,50.38
2023-04-12T10:33:42.920Z,56.03
2023-04-12T10:38:42.843Z,57.68
2023-04-12T10:43:45.721Z,62.74
2023-04-12T10:48:42.723Z,66.66
2023-04-12T10:53:42.559Z,67.13
2023-04-12T10:58:42.485Z,69.84
2023-04-12T11:03:42.582Z,71.80
2023-04-12T11:08:42.435Z,73.02
2023-04-12T11:13:42.420Z,73.84
2023-04-12T11:18:42.387Z,75.16
2023-04-12T11:23:42.209Z,75.40
2023-04-12T11:28:42.009Z,76.08
2023-04-12T11:33:42.071Z,75.16
2023-04-12T11:38:42.272Z,73.88
2023-04-12T11:43:44.886Z,73.81
2023-04-12T11:48:41.742Z,73.64
2023-04-12T11:53:41.817Z,72.21
2023-04-12T11:58:41.703Z,70.72
2023-04-12T12:03:41.854Z,70.95
2023-04-12T12:08:41.666Z,70.24
2023-04-12T12:13:43.034Z,70.31
2023-04-12T12:18:41.413Z,69.43
2023-04-12T12:23:41.321Z,68.51
2023-04-12T12:28:41.292Z,68.51
2023-04-12T12:33:46.308Z,67.90
2023-04-12T12:38:42.199Z,68.99
2023-04-12T12:43:44.032Z,68.92
2023-04-12T12:48:41.032Z,69.12
2023-04-12T12:53:40.888Z,67.80
2023-04-12T12:58:41.294Z,66.96
2023-04-12T13:03:40.885Z,68.18
2023-04-12T13:08:40.684Z,69.60
2023-04-12T13:13:40.658Z,69.97
2023-04-12T13:18:40.550Z,69.40
2023-04-12T13:23:41.137Z,71.12
2023-04-12T13:28:40.394Z,72.52
2023-04-12T13:33:41.117Z,70.14
2023-04-12T13:38:40.270Z,68.52
2023-04-12T13:43:43.277Z,67.48
2023-04-12T13:48:40.149Z,67.45
2023-04-12T13:53:40.107Z,65.45
2023-04-12T13:58:39.997Z,66.00
2023-04-12T14:03:40.128Z,64.92
2023-04-12T14:08:39.851Z,64.78
2023-04-12T14:13:39.822Z,65.11
2023-04-12T14:18:39.680Z,64.64
2023-04-12T14:23:39.695Z,64.58
2023-04-12T14:28:39.625Z,64.85
2023-04-12T14:33:39.926Z,64.07
2023-04-12T14:38:39.454Z,64.17
2023-04-12T14:43:42.418Z,63.81
2023-04-12T14:48:39.417Z,65.48
2023-04-12T14:53:48.075Z,63.30
2023-04-12T14:58:46.650Z,64.72
2023-04-12T15:03:39.430Z,65.69
2023-04-12T15:08:39.137Z,64.47
2023-04-12T15:13:39.008Z,65.89
2023-04-12T15:18:38.970Z,64.24
2023-04-12T15:23:38.883Z,64.24
2023-04-12T15:28:38.780Z,64.58
2023-04-12T15:33:38.796Z,65.32
2023-04-12T15:38:38.718Z,64.07
2023-04-12T15:43:42.775Z,64.51
2023-04-12T15:48:38.524Z,66.80
2023-04-12T15:53:38.494Z,64.75
2023-04-12T15:58:38.393Z,66.09
2023-04-12T16:03:38.637Z,66.40
2023-04-12T16:08:38.258Z,67.92
2023-04-12T16:13:38.262Z,66.83
2023-04-12T16:18:38.146Z,67.24
2023-04-12T16:23:38.362Z,68.59
2023-04-12T16:28:37.989Z,69.43
2023-04-12T16:33:37.977Z,69.26
2023-04-12T16:38:37.861Z,70.45
2023-04-12T16:43:42.677Z,69.74
2023-04-12T16:48:37.742Z,69.71
2023-04-12T16:53:37.823Z,69.07
2023-04-12T16:58:37.609Z,69.51
2023-04-12T17:03:37.706Z,70.01
2023-04-12T17:08:37.476Z,71.47
2023-04-12T17:13:37.455Z,71.80
2023-04-12T17:18:37.465Z,71.94
2023-04-12T17:23:37.291Z,72.65
2023-04-12T17:28:37.158Z,72.82
2023-04-12T17:33:37.152Z,73.74
2023-04-12T17:38:37.129Z,76.04
2023-04-12T17:43:40.000Z,79.57
2023-04-12T17:48:36.913Z,81.60
2023-04-12T17:53:59.942Z,83.42
2023-04-12T17:58:36.780Z,84.59
2023-04-12T18:04:16.193Z,86.82
2023-04-12T18:08:36.627Z,87.29
2023-04-12T18:13:36.831Z,87.53
2023-04-12T18:18:36.491Z,87.67
2023-04-12T18:23:36.590Z,87.23
2023-04-12T18:28:37.485Z,87.92
2023-04-12T18:33:36.362Z,88.18
2023-04-12T18:38:36.338Z,87.26
2023-04-12T18:43:39.201Z,87.98
2023-04-12T18:48:36.109Z,87.98
2023-04-12T18:53:36.077Z,86.92
2023-04-12T18:58:53.919Z,87.06
2023-04-12T19:03:37.085Z,86.96
2023-04-12T19:08:35.859Z,86.80
2023-04-12T19:13:35.924Z,87.10
2023-04-12T19:18:35.771Z,87.30
2023-04-12T19:23:35.668Z,86.69
2023-04-12T19:28:35.566Z,87.10
2023-04-12T19:33:35.656Z,87.55
2023-04-12T19:38:43.400Z,86.45
2023-04-12T19:43:46.163Z,82.41
2023-04-12T19:48:43.125Z,80.24
2023-04-12T19:53:35.313Z,80.61
2023-04-12T19:58:35.177Z,82.10
2023-04-12T20:03:35.233Z,81.32
2023-04-12T20:08:35.048Z,80.91
2023-04-12T20:13:35.192Z,81.43
2023-04-12T20:18:35.066Z,82.73
2023-04-12T20:23:34.870Z,85.91
2023-04-12T20:28:34.818Z,84.91
2023-04-12T20:33:34.738Z,85.97
2023-04-12T20:38:34.648Z,86.43
2023-04-12T20:43:37.618Z,86.53
2023-04-12T20:48:34.552Z,86.98
2023-04-12T20:53:34.496Z,86.22
2023-04-12T20:58:34.411Z,86.36
2023-04-12T21:03:34.550Z,86.36
2023-04-12T21:08:34.217Z,85.81
2023-04-12T21:13:34.203Z,85.50
2023-04-12T21:18:34.110Z,85.20
2023-04-12T21:23:34.182Z,84.89
2023-04-12T21:28:34.014Z,84.22
2023-04-12T21:33:33.930Z,83.88
2023-04-12T21:38:34.144Z,79.62
2023-04-12T21:43:36.880Z,80.33
2023-04-12T21:48:33.883Z,81.09
2023-04-12T21:53:33.774Z,80.88
2023-04-12T21:58:33.735Z,81.05
2023-04-12T22:03:33.673Z,82.12
2023-04-12T22:08:33.516Z,83.49
2023-04-12T22:13:33.488Z,83.65
2023-04-12T22:18:33.393Z,83.94
2023-04-12T22:23:33.377Z,84.10
2023-04-12T22:28:33.204Z,83.55
2023-04-12T22:33:33.213Z,83.07
2023-04-12T22:38:33.189Z,83.59
2023-04-12T22:43:36.019Z,83.42
2023-04-12T22:48:32.924Z,85.35
2023-04-12T22:53:32.970Z,84.90
2023-04-12T22:58:32.806Z,84.84
2023-04-12T23:03:32.932Z,84.08
2023-04-12T23:08:32.677Z,83.05
2023-04-12T23:13:32.628Z,83.09
2023-04-12T23:18:32.506Z,84.16
2023-04-12T23:23:32.568Z,83.40
2023-04-12T23:28:32.374Z,83.54
2023-04-12T23:33:32.367Z,85.26
2023-04-12T23:38:32.765Z,84.89
2023-04-12T23:43:35.272Z,84.99
2023-04-12T23:48:32.157Z,86.06
2023-04-12T23:53:32.088Z,84.89
2023-04-12T23:58:32.041Z,85.41
